Time;durP1;ratioP1;P1;durP2;ratioP2;P2;SDS_P1;SDS_P2;PMS_P1;PMS_P2;Temp;Humidity;BMP_temperature;BMP_pressure;BME280_temperature;BME280_humidity;BME280_pressure;Samples;Min_cycle;Max_cycle;Signal;HPM_P1;HPM_P2
2021/09/15 00:02:10;;;;;;;1.77;1.67;;;21.90;99.90;;;;;;5028582;28;20186;-76
2021/09/15 00:04:36;;;;;;;1.20;1.10;;;21.90;99.90;;;;;;5020845;28;20211;-75
2021/09/15 00:07:01;;;;;;;4.17;2.73;;;21.90;99.90;;;;;;5017270;28;20255;-76
2021/09/15 00:09:27;;;;;;;4.77;3.23;;;21.80;99.90;;;;;;5019148;28;20700;-76
2021/09/15 00:11:54;;;;;;;2.73;1.83;;;21.80;99.90;;;;;;5031177;28;20191;-76
2021/09/15 00:14:20;;;;;;;0.90;0.80;;;21.80;99.90;;;;;;5022607;28;20184;-76
2021/09/15 00:16:45;;;;;;;3.40;2.17;;;21.80;99.90;;;;;;5029326;28;20461;-76
2021/09/15 00:19:11;;;;;;;2.30;2.10;;;21.80;99.90;;;;;;5017017;28;20215;-76
2021/09/15 00:21:37;;;;;;;1.97;1.87;;;21.80;99.90;;;;;;5023380;28;20199;-75
2021/09/15 00:24:03;;;;;;;2.03;1.73;;;21.80;99.90;;;;;;5018699;28;20191;-76
2021/09/15 00:26:29;;;;;;;1.47;1.37;;;21.80;99.90;;;;;;5022586;28;20520;-76
2021/09/15 00:28:54;;;;;;;3.03;2.87;;;21.70;99.90;;;;;;5028028;28;20282;-76
2021/09/15 00:31:20;;;;;;;1.50;1.40;;;21.70;99.90;;;;;;5019009;28;20204;-76
2021/09/15 00:33:45;;;;;;;5.73;2.47;;;21.70;99.90;;;;;;5021164;28;20213;-76
2021/09/15 00:36:11;;;;;;;2.20;2.03;;;21.70;99.90;;;;;;5019813;28;20208;-76
2021/09/15 00:38:36;;;;;;;1.13;0.80;;;21.70;99.90;;;;;;5015266;28;20191;-75
2021/09/15 00:41:02;;;;;;;1.20;1.10;;;21.60;99.90;;;;;;5027088;28;20219;-76
2021/09/15 00:43:27;;;;;;;4.13;2.03;;;21.70;99.90;;;;;;5019731;28;20556;-76
2021/09/15 00:45:55;;;;;;;2.27;2.17;;;21.60;99.90;;;;;;5014350;28;20207;-76
2021/09/15 00:48:20;;;;;;;2.03;1.83;;;21.70;99.90;;;;;;5022917;28;20180;-76
2021/09/15 00:50:46;;;;;;;2.80;2.03;;;21.70;99.90;;;;;;5030202;28;20450;-76
2021/09/15 00:53:12;;;;;;;3.70;1.53;;;21.70;99.90;;;;;;5014944;28;20234;-76
2021/09/15 00:55:37;;;;;;;2.07;1.97;;;21.70;99.90;;;;;;5016242;28;20204;-74
2021/09/15 00:58:03;;;;;;;2.30;1.80;;;21.70;99.90;;;;;;5020836;28;20202;-76
2021/09/15 01:00:29;;;;;;;1.43;1.33;;;21.60;99.90;;;;;;5026222;28;20445;-76
2021/09/15 01:02:55;;;;;;;3.07;2.10;;;21.70;99.90;;;;;;5029738;28;20274;-76
2021/09/15 01:05:20;;;;;;;2.10;1.30;;;21.60;99.90;;;;;;5032105;28;20179;-76
2021/09/15 01:07:46;;;;;;;0.83;0.80;;;21.60;99.90;;;;;;5033277;28;20418;-76
2021/09/15 01:10:12;;;;;;;2.57;2.37;;;21.60;99.90;;;;;;5033577;28;20703;-76
2021/09/15 01:12:38;;;;;;;1.67;1.57;;;21.60;99.90;;;;;;5026519;28;20180;-76
2021/09/15 01:15:05;;;;;;;1.93;1.83;;;21.60;99.90;;;;;;5020405;28;20498;-74
2021/09/15 01:17:31;;;;;;;1.57;1.30;;;21.60;99.90;;;;;;5018324;28;20450;-76
2021/09/15 01:19:57;;;;;;;2.27;1.37;;;21.60;99.90;;;;;;5027096;28;20449;-76
2021/09/15 01:22:23;;;;;;;1.87;1.20;;;21.50;99.90;;;;;;5023849;28;20184;-76
2021/09/15 01:24:50;;;;;;;3.37;2.60;;;21.50;99.90;;;;;;5020140;28;20429;-76
2021/09/15 01:27:15;;;;;;;1.57;1.43;;;21.50;99.90;;;;;;5023342;28;20431;-76
2021/09/15 01:29:41;;;;;;;1.60;1.50;;;21.50;99.90;;;;;;5019088;28;20450;-76
2021/09/15 01:32:08;;;;;;;1.10;1.00;;;21.40;99.90;;;;;;5019605;28;20199;-76
2021/09/15 01:34:38;;;;;;;2.00;1.80;;;21.50;99.90;;;;;;5025502;28;20423;-76
2021/09/15 01:37:05;;;;;;;1.30;1.10;;;21.40;99.90;;;;;;5024938;28;20426;-76
2021/09/15 01:39:31;;;;;;;1.30;1.20;;;21.40;99.90;;;;;;5017429;28;20427;-76
2021/09/15 01:41:59;;;;;;;1.67;1.37;;;21.50;99.90;;;;;;5014975;28;20462;-76
2021/09/15 01:44:39;;;;;;;1.97;1.77;;;21.50;99.90;;;;;;5013126;28;20510;-75
2021/09/15 01:47:07;;;;;;;1.60;1.00;;;21.50;99.90;;;;;;5017528;28;20954;-76
2021/09/15 01:49:34;;;;;;;2.27;1.40;;;21.50;99.90;;;;;;5018220;28;20477;-75
2021/09/15 01:52:00;;;;;;;3.13;1.43;;;21.50;99.90;;;;;;5013762;28;20797;-76
2021/09/15 01:54:27;;;;;;;1.77;1.67;;;21.50;99.90;;;;;;5015995;28;20456;-76
2021/09/15 01:56:52;;;;;;;1.77;1.33;;;21.50;99.90;;;;;;5022260;28;20557;-76
2021/09/15 01:59:18;;;;;;;1.30;1.20;;;21.50;99.90;;;;;;5023940;28;20501;-76
2021/09/15 02:01:43;;;;;;;2.63;1.23;;;21.40;99.90;;;;;;5015938;28;20195;-76
2021/09/15 02:04:09;;;;;;;1.90;1.13;;;21.30;99.90;;;;;;5018594;28;20175;-76
2021/09/15 02:06:35;;;;;;;3.10;2.83;;;21.30;99.90;;;;;;5033216;28;20214;-75
2021/09/15 02:09:01;;;;;;;2.30;2.20;;;21.30;99.90;;;;;;5021035;28;20180;-76
2021/09/15 02:11:28;;;;;;;2.43;2.23;;;21.30;99.90;;;;;;5023881;28;20454;-75
2021/09/15 02:13:53;;;;;;;2.13;1.63;;;21.30;99.90;;;;;;5013752;28;20423;-76
2021/09/15 02:16:20;;;;;;;4.00;1.23;;;21.30;99.90;;;;;;5016237;28;20485;-75
2021/09/15 02:18:45;;;;;;;1.97;1.47;;;21.30;99.90;;;;;;5012281;28;20255;-76
2021/09/15 02:21:11;;;;;;;2.60;1.23;;;21.40;99.90;;;;;;5029232;28;20470;-76
2021/09/15 02:23:37;;;;;;;2.20;2.10;;;21.40;99.90;;;;;;5018717;28;20176;-76
2021/09/15 02:26:03;;;;;;;3.10;1.10;;;21.40;99.90;;;;;;5021218;28;20714;-76
2021/09/15 02:28:28;;;;;;;4.03;2.93;;;21.30;99.90;;;;;;5012240;28;20256;-76
2021/09/15 02:30:54;;;;;;;3.53;2.67;;;21.40;99.90;;;;;;5013542;28;20455;-76
2021/09/15 02:33:19;;;;;;;1.50;1.40;;;21.40;99.90;;;;;;5018272;28;20560;-76
2021/09/15 02:35:45;;;;;;;1.80;1.60;;;21.40;99.90;;;;;;5017895;28;20216;-76
2021/09/15 02:38:10;;;;;;;1.53;1.43;;;21.40;99.90;;;;;;5020605;28;20595;-76
2021/09/15 02:40:36;;;;;;;2.10;2.00;;;21.40;99.90;;;;;;5021939;28;20274;-76
2021/09/15 02:43:02;;;;;;;2.20;1.77;;;21.40;99.90;;;;;;5019876;28;20374;-76
2021/09/15 02:45:27;;;;;;;1.73;1.20;;;21.40;99.90;;;;;;5015140;28;20199;-77
2021/09/15 02:47:53;;;;;;;2.87;2.47;;;21.40;99.90;;;;;;5019480;28;20175;-76
2021/09/15 02:50:18;;;;;;;0.90;0.80;;;21.40;99.90;;;;;;5018016;28;20207;-75
2021/09/15 02:52:44;;;;;;;1.57;1.17;;;21.40;99.90;;;;;;5021992;28;20704;-75
2021/09/15 02:55:10;;;;;;;2.77;2.50;;;21.40;99.90;;;;;;5018824;28;20215;-76
2021/09/15 02:57:35;;;;;;;2.07;1.37;;;21.40;99.90;;;;;;5023792;28;20184;-76
2021/09/15 03:00:01;;;;;;;1.27;1.17;;;21.40;99.90;;;;;;5028534;28;20662;-76
2021/09/15 03:02:26;;;;;;;2.43;1.50;;;21.40;99.90;;;;;;5017929;28;20576;-76
2021/09/15 03:04:52;;;;;;;1.20;0.93;;;21.40;99.90;;;;;;5013439;28;20180;-76
2021/09/15 03:07:17;;;;;;;4.43;2.40;;;21.30;99.90;;;;;;5010662;28;20183;-76
2021/09/15 03:09:43;;;;;;;2.23;1.50;;;21.40;99.90;;;;;;5012063;28;20207;-76
2021/09/15 03:12:08;;;;;;;0.80;0.77;;;21.30;99.90;;;;;;5021807;28;20171;-75
2021/09/15 03:14:34;;;;;;;2.83;1.60;;;21.30;99.90;;;;;;5031006;28;20263;-76
2021/09/15 03:16:59;;;;;;;2.33;1.53;;;21.30;99.90;;;;;;5017704;28;20211;-76
2021/09/15 03:19:25;;;;;;;1.53;1.43;;;21.30;99.90;;;;;;5028607;28;20179;-77
2021/09/15 03:21:50;;;;;;;1.30;1.10;;;21.20;99.90;;;;;;5018243;28;20195;-77
2021/09/15 03:24:16;;;;;;;2.47;2.27;;;21.20;99.90;;;;;;5014906;28;20188;-77
2021/09/15 03:26:42;;;;;;;1.30;1.20;;;21.10;99.90;;;;;;5018016;28;20188;-77
2021/09/15 03:29:07;;;;;;;1.93;1.33;;;21.10;99.90;;;;;;5025892;28;20192;-76
2021/09/15 03:31:33;;;;;;;6.83;2.23;;;21.10;99.90;;;;;;5025988;28;20693;-76
2021/09/15 03:33:58;;;;;;;1.00;0.93;;;21.10;99.90;;;;;;5027819;28;20179;-77
2021/09/15 03:36:24;;;;;;;1.53;1.43;;;21.10;99.90;;;;;;5031317;28;20568;-77
2021/09/15 03:38:49;;;;;;;2.30;2.20;;;21.10;99.90;;;;;;5028546;28;20185;-76
2021/09/15 03:41:15;;;;;;;2.30;1.93;;;21.10;99.90;;;;;;5012579;28;20200;-76
2021/09/15 03:43:40;;;;;;;1.63;1.23;;;21.10;99.90;;;;;;5012186;28;20266;-76
2021/09/15 03:46:06;;;;;;;1.30;1.20;;;21.00;99.90;;;;;;5012581;28;20215;-75
2021/09/15 03:48:31;;;;;;;1.83;1.70;;;21.00;99.90;;;;;;5014432;28;20256;-76
2021/09/15 03:50:57;;;;;;;2.20;1.27;;;21.00;99.90;;;;;;5025865;28;20235;-76
2021/09/15 03:53:22;;;;;;;2.03;1.50;;;21.00;99.90;;;;;;5014538;28;20180;-76
2021/09/15 03:55:48;;;;;;;2.40;1.90;;;21.00;99.90;;;;;;5011364;28;20204;-75
2021/09/15 03:58:13;;;;;;;2.23;1.93;;;21.00;99.90;;;;;;5012360;28;20208;-77
2021/09/15 04:00:39;;;;;;;3.00;2.80;;;21.00;99.90;;;;;;5015771;28;20200;-76
2021/09/15 04:03:05;;;;;;;1.30;0.93;;;21.00;99.90;;;;;;5019899;28;20999;-76
2021/09/15 04:05:30;;;;;;;2.87;1.83;;;21.00;99.90;;;;;;5017304;28;20652;-76
2021/09/15 04:07:56;;;;;;;2.40;1.47;;;21.00;99.90;;;;;;5016984;28;20788;-75
2021/09/15 04:10:21;;;;;;;2.13;1.13;;;21.00;99.90;;;;;;5016638;28;20207;-76
2021/09/15 04:12:47;;;;;;;3.87;2.33;;;21.00;99.90;;;;;;5019465;28;20180;-75
2021/09/15 04:15:12;;;;;;;11.90;3.73;;;20.90;99.90;;;;;;5022176;28;20238;-75
2021/09/15 04:17:38;;;;;;;1.87;1.77;;;20.90;99.90;;;;;;5018045;28;20180;-75
2021/09/15 04:20:05;;;;;;;1.80;1.20;;;20.90;99.90;;;;;;5020698;28;20192;-76
2021/09/15 04:22:32;;;;;;;2.07;1.57;;;20.90;99.90;;;;;;5021640;28;20660;-76
2021/09/15 04:32:58;;;;;;;1.73;1.63;;;20.80;99.90;;;;;;5014993;28;20426;-77
2021/09/15 04:35:24;;;;;;;1.93;1.83;;;20.80;99.90;;;;;;5018361;28;20494;-76
2021/09/15 04:37:50;;;;;;;1.17;1.07;;;20.70;99.90;;;;;;5034102;28;20416;-76
2021/09/15 04:40:15;;;;;;;2.90;2.70;;;20.80;99.90;;;;;;5028811;28;20501;-76
2021/09/15 04:42:41;;;;;;;2.47;2.23;;;20.80;99.90;;;;;;5014483;28;20176;-76
2021/09/15 04:45:07;;;;;;;2.30;2.20;;;20.70;99.90;;;;;;5014537;28;20702;-76
2021/09/15 04:47:33;;;;;;;1.20;1.10;;;20.80;99.90;;;;;;5016313;28;20184;-74
2021/09/15 04:49:59;;;;;;;3.60;3.30;;;20.70;99.90;;;;;;5033885;28;20499;-75
2021/09/15 04:52:24;;;;;;;2.83;2.60;;;20.70;99.90;;;;;;5023690;28;20180;-76
2021/09/15 04:54:50;;;;;;;4.10;2.93;;;20.70;99.90;;;;;;5023156;28;20445;-75
2021/09/15 04:57:16;;;;;;;2.27;2.07;;;20.60;99.90;;;;;;5027438;28;20207;-76
2021/09/15 04:59:41;;;;;;;2.50;2.30;;;20.50;99.90;;;;;;5023269;28;20254;-76
2021/09/15 05:02:07;;;;;;;1.80;1.67;;;20.50;99.90;;;;;;5020689;28;20178;-76
2021/09/15 05:04:32;;;;;;;1.97;1.43;;;20.50;99.90;;;;;;5019475;28;20234;-76
2021/09/15 05:06:58;;;;;;;1.93;1.30;;;20.50;99.90;;;;;;5025345;28;20189;-78
2021/09/15 05:09:23;;;;;;;8.73;1.63;;;20.50;99.90;;;;;;5015352;28;20183;-76
2021/09/15 05:11:49;;;;;;;1.40;1.30;;;20.50;99.90;;;;;;5017824;28;20176;-76
2021/09/15 05:14:15;;;;;;;1.63;1.10;;;20.50;99.90;;;;;;5014509;28;20548;-76
2021/09/15 05:16:41;;;;;;;1.67;1.20;;;20.50;99.90;;;;;;5019182;28;20245;-77
2021/09/15 05:19:06;;;;;;;1.10;1.00;;;20.40;99.90;;;;;;5019516;28;20489;-77
2021/09/15 05:21:32;;;;;;;1.93;1.33;;;20.40;99.90;;;;;;5022061;28;20653;-76
2021/09/15 05:23:57;;;;;;;2.03;1.93;;;20.30;99.90;;;;;;5022081;28;20307;-75
2021/09/15 05:26:23;;;;;;;1.20;1.00;;;20.30;99.90;;;;;;5029048;28;20234;-75
2021/09/15 05:28:48;;;;;;;1.50;1.37;;;20.30;99.90;;;;;;5017455;28;20277;-76
2021/09/15 05:31:14;;;;;;;1.63;1.53;;;20.20;99.90;;;;;;5018113;28;20200;-76
2021/09/15 05:33:40;;;;;;;1.30;1.20;;;20.10;99.90;;;;;;5025717;28;20198;-77
2021/09/15 05:36:05;;;;;;;1.27;1.17;;;20.00;99.90;;;;;;5023101;28;20199;-77
2021/09/15 05:38:31;;;;;;;1.73;1.47;;;20.10;99.90;;;;;;5025114;28;20180;-78
2021/09/15 05:40:56;;;;;;;1.67;1.47;;;20.20;99.90;;;;;;5016718;28;20275;-77
2021/09/15 05:43:22;;;;;;;5.60;4.53;;;20.20;99.90;;;;;;5026185;28;20176;-76
2021/09/15 05:45:47;;;;;;;1.40;1.30;;;20.10;99.90;;;;;;5017401;28;20177;-76
2021/09/15 05:48:13;;;;;;;0.87;0.87;;;20.20;99.90;;;;;;5025126;28;20180;-77
2021/09/15 05:50:38;;;;;;;1.80;1.70;;;20.20;99.90;;;;;;5016656;28;20699;-76
2021/09/15 05:53:04;;;;;;;2.13;0.83;;;20.20;99.90;;;;;;5023515;28;20222;-76
2021/09/15 05:55:30;;;;;;;2.90;1.37;;;20.20;99.90;;;;;;5022873;28;20294;-76
2021/09/15 05:57:58;;;;;;;1.67;1.47;;;20.20;99.90;;;;;;5020776;28;20176;-76
2021/09/15 06:00:23;;;;;;;2.13;1.93;;;20.30;99.90;;;;;;5020215;28;20291;-77
2021/09/15 06:02:49;;;;;;;2.20;2.00;;;20.30;99.90;;;;;;5024672;28;20498;-76
2021/09/15 06:05:14;;;;;;;1.90;1.53;;;20.30;99.90;;;;;;5019215;28;20176;-76
2021/09/15 06:07:40;;;;;;;1.13;1.00;;;20.30;99.90;;;;;;5023483;28;20641;-77
2021/09/15 06:10:06;;;;;;;2.33;1.70;;;20.30;99.90;;;;;;5026485;28;20231;-77
2021/09/15 06:12:31;;;;;;;4.97;2.70;;;20.30;99.90;;;;;;5013854;28;20177;-77
2021/09/15 06:14:57;;;;;;;3.30;1.93;;;20.40;99.90;;;;;;5012998;28;20403;-76
2021/09/15 06:17:22;;;;;;;1.20;1.10;;;20.40;99.90;;;;;;5014154;28;20171;-76
2021/09/15 06:19:48;;;;;;;0.80;0.77;;;20.40;99.90;;;;;;5015696;28;20191;-76
2021/09/15 06:22:13;;;;;;;1.50;1.40;;;20.40;99.90;;;;;;5031767;28;20644;-76
2021/09/15 06:24:39;;;;;;;4.17;3.77;;;20.50;99.90;;;;;;5013813;28;20525;-77
2021/09/15 06:27:05;;;;;;;1.10;1.00;;;20.40;99.90;;;;;;5015997;28;20655;-77
2021/09/15 06:29:30;;;;;;;1.77;1.37;;;20.50;99.90;;;;;;5031421;28;20572;-77
2021/09/15 06:31:56;;;;;;;1.37;1.13;;;20.50;99.90;;;;;;5017891;28;20545;-77
2021/09/15 06:34:21;;;;;;;2.73;2.03;;;20.40;99.90;;;;;;5024705;28;20680;-76
2021/09/15 06:36:47;;;;;;;1.47;1.33;;;20.40;99.90;;;;;;5015392;28;20235;-76
2021/09/15 06:39:13;;;;;;;1.47;1.23;;;20.40;99.90;;;;;;5033696;28;20195;-76
2021/09/15 06:41:38;;;;;;;2.90;0.93;;;20.40;99.90;;;;;;5020176;28;20556;-76
2021/09/15 06:44:04;;;;;;;1.33;1.10;;;20.50;99.90;;;;;;5032513;28;20254;-76
2021/09/15 06:46:29;;;;;;;1.43;1.33;;;20.60;99.90;;;;;;5030806;28;20175;-77
2021/09/15 06:48:55;;;;;;;3.73;1.10;;;20.70;99.90;;;;;;5030859;28;20179;-77
2021/09/15 06:51:21;;;;;;;1.70;1.60;;;20.70;99.90;;;;;;5029810;28;20206;-77
2021/09/15 06:53:47;;;;;;;1.20;1.10;;;20.80;99.90;;;;;;5027464;28;20180;-77
2021/09/15 06:56:13;;;;;;;1.50;1.40;;;20.90;99.90;;;;;;5016351;28;20203;-77
2021/09/15 06:58:38;;;;;;;1.30;1.10;;;20.90;99.90;;;;;;5030833;28;20753;-77
2021/09/15 07:01:04;;;;;;;2.80;1.70;;;21.00;99.90;;;;;;5031740;28;20607;-77
2021/09/15 07:03:29;;;;;;;1.47;1.37;;;21.00;99.90;;;;;;5030050;28;20160;-77
2021/09/15 07:05:55;;;;;;;1.00;0.83;;;21.00;99.90;;;;;;5029954;28;20197;-77
2021/09/15 07:08:21;;;;;;;1.03;0.93;;;21.00;99.90;;;;;;5031941;28;20179;-77
2021/09/15 07:10:47;;;;;;;1.77;1.67;;;21.10;99.90;;;;;;5031450;28;20195;-77
2021/09/15 07:13:12;;;;;;;1.23;1.17;;;21.10;99.90;;;;;;5027890;28;20176;-77
2021/09/15 07:15:38;;;;;;;1.10;0.93;;;21.10;99.90;;;;;;5022184;28;20929;-78
2021/09/15 07:18:05;;;;;;;1.47;0.80;;;21.00;99.90;;;;;;5017375;28;20261;-77
2021/09/15 07:20:31;;;;;;;0.80;0.77;;;21.10;99.90;;;;;;5022868;28;20187;-75
2021/09/15 07:22:56;;;;;;;1.43;0.90;;;21.10;99.90;;;;;;5018848;28;20458;-77
2021/09/15 07:25:22;;;;;;;1.43;1.30;;;21.10;99.90;;;;;;5014619;28;20195;-78
2021/09/15 07:27:48;;;;;;;0.80;0.60;;;21.20;99.90;;;;;;5028831;28;20584;-77
2021/09/15 07:30:13;;;;;;;1.80;1.40;;;21.30;99.90;;;;;;5033058;28;20223;-77
2021/09/15 07:32:39;;;;;;;2.33;2.13;;;21.30;99.90;;;;;;5031438;28;20638;-77
2021/09/15 07:35:05;;;;;;;1.60;1.50;;;21.30;99.90;;;;;;5028429;28;20685;-77
2021/09/15 07:37:31;;;;;;;2.03;1.67;;;21.40;99.90;;;;;;5031771;28;20218;-77
2021/09/15 07:39:57;;;;;;;1.67;1.50;;;21.50;99.90;;;;;;5033099;28;20439;-77
2021/09/15 07:42:23;;;;;;;0.90;0.80;;;21.60;99.90;;;;;;5022692;28;20199;-77
2021/09/15 07:44:50;;;;;;;1.17;1.10;;;21.70;99.90;;;;;;5024172;28;20204;-76
2021/09/15 07:47:16;;;;;;;0.87;0.80;;;21.70;99.90;;;;;;5030063;28;20830;-76
2021/09/15 07:49:43;;;;;;;1.20;1.10;;;21.70;99.90;;;;;;5021879;28;20446;-76
2021/09/15 07:52:09;;;;;;;1.20;1.10;;;21.70;99.90;;;;;;5017705;28;20265;-77
2021/09/15 07:54:35;;;;;;;1.67;1.57;;;21.80;99.90;;;;;;5022793;28;20435;-78
2021/09/15 07:57:00;;;;;;;1.70;1.60;;;21.70;99.90;;;;;;5036458;28;20595;-77
2021/09/15 07:59:26;;;;;;;1.23;1.13;;;21.70;99.90;;;;;;5026858;28;20172;-77
2021/09/15 08:01:51;;;;;;;1.87;1.43;;;21.80;99.90;;;;;;5024927;28;20176;-77
2021/09/15 08:04:17;;;;;;;1.87;1.67;;;21.90;99.90;;;;;;5021363;28;20168;-77
2021/09/15 08:06:42;;;;;;;1.53;1.43;;;21.90;99.90;;;;;;5017783;28;20172;-77
2021/09/15 08:09:08;;;;;;;1.17;1.07;;;22.00;99.90;;;;;;5025935;28;20175;-77
2021/09/15 08:11:33;;;;;;;2.20;2.00;;;22.00;99.90;;;;;;5032774;28;20245;-76
2021/09/15 08:13:59;;;;;;;1.33;1.23;;;22.10;99.90;;;;;;5027685;28;20176;-77
2021/09/15 08:16:25;;;;;;;2.43;2.17;;;22.00;99.90;;;;;;5028629;28;20203;-77
2021/09/15 08:18:50;;;;;;;8.07;1.30;;;22.00;99.90;;;;;;5019716;28;20425;-77
2021/09/15 08:21:16;;;;;;;1.40;1.30;;;22.00;99.90;;;;;;5042196;28;20239;-77
2021/09/15 08:23:42;;;;;;;1.00;0.90;;;21.90;99.90;;;;;;5054650;28;20194;-76
2021/09/15 08:26:07;;;;;;;1.70;1.43;;;21.90;99.90;;;;;;5039012;28;20694;-76
2021/09/15 08:28:36;;;;;;;0.97;0.83;;;21.90;99.90;;;;;;5034286;28;20175;-77
2021/09/15 08:31:06;;;;;;;0.80;0.70;;;21.90;99.90;;;;;;5013887;28;20578;-76
2021/09/15 08:33:32;;;;;;;0.80;0.60;;;21.90;99.90;;;;;;5015873;28;20632;-76
2021/09/15 08:35:58;;;;;;;2.00;0.93;;;21.90;99.90;;;;;;5024280;28;20458;-77
2021/09/15 08:38:23;;;;;;;1.20;0.80;;;22.00;99.90;;;;;;5024413;28;20453;-77
2021/09/15 08:40:53;;;;;;;1.60;1.50;;;21.90;99.90;;;;;;5028159;28;20219;-76
2021/09/15 08:43:19;;;;;;;1.00;0.90;;;22.00;99.90;;;;;;5031160;28;20168;-77
2021/09/15 08:45:45;;;;;;;1.20;1.10;;;21.90;99.90;;;;;;5036278;28;20406;-77
2021/09/15 08:48:10;;;;;;;2.20;2.00;;;21.90;99.90;;;;;;5036199;28;20270;-77
2021/09/15 08:50:36;;;;;;;1.00;0.90;;;21.90;99.90;;;;;;5036229;28;20527;-77
2021/09/15 08:53:02;;;;;;;1.30;1.03;;;22.00;99.90;;;;;;5024644;28;20419;-77
2021/09/15 08:55:28;;;;;;;2.97;2.77;;;21.90;99.90;;;;;;5014021;28;20215;-76
2021/09/15 08:57:54;;;;;;;1.00;0.90;;;21.80;99.90;;;;;;5015846;28;20251;-77
2021/09/15 09:00:19;;;;;;;0.80;0.60;;;21.90;99.90;;;;;;5014068;28;21066;-76
2021/09/15 09:02:49;;;;;;;0.70;0.60;;;21.80;99.90;;;;;;5020365;28;20789;-77
2021/09/15 09:05:15;;;;;;;0.90;0.73;;;21.90;99.90;;;;;;5013962;28;20251;-77
2021/09/15 09:07:41;;;;;;;1.10;0.80;;;22.00;99.90;;;;;;5014436;28;20427;-78
2021/09/15 09:10:11;;;;;;;7.13;2.93;;;22.00;99.90;;;;;;5016630;28;20442;-76
2021/09/15 09:12:38;;;;;;;0.80;0.60;;;22.00;99.90;;;;;;5021027;28;20187;-76
2021/09/15 09:15:23;;;;;;;0.80;0.70;;;22.00;99.90;;;;;;5032890;28;20422;-77
2021/09/15 09:17:49;;;;;;;1.30;1.07;;;22.10;99.90;;;;;;5033274;28;20823;-76
2021/09/15 09:20:21;;;;;;;1.30;0.93;;;22.10;99.90;;;;;;5032189;28;20450;-77
2021/09/15 09:23:08;;;;;;;0.83;0.83;;;22.10;99.90;;;;;;5032116;28;20505;-77
2021/09/15 09:25:43;;;;;;;1.03;0.60;;;22.10;99.90;;;;;;5026286;28;20966;-76
2021/09/15 09:28:30;;;;;;;1.47;0.80;;;22.10;99.90;;;;;;5014891;28;20526;-76
2021/09/15 09:30:59;;;;;;;1.63;1.23;;;22.10;99.90;;;;;;5013812;28;20539;-76
2021/09/15 09:33:26;;;;;;;0.80;0.70;;;22.10;99.90;;;;;;5014281;28;20411;-77
2021/09/15 09:35:55;;;;;;;1.20;1.07;;;22.10;99.90;;;;;;5014404;28;20454;-77
2021/09/15 09:38:45;;;;;;;1.23;1.13;;;22.10;99.90;;;;;;5014685;28;20430;-77
2021/09/15 09:41:21;;;;;;;0.90;0.70;;;22.10;99.90;;;;;;5031406;28;20806;-77
2021/09/15 09:43:54;;;;;;;1.83;1.07;;;22.00;99.90;;;;;;5032809;28;20505;-76
2021/09/15 09:46:31;;;;;;;0.70;0.50;;;21.90;99.90;;;;;;5014880;28;20418;-75
2021/09/15 09:48:59;;;;;;;2.20;0.90;;;21.90;99.90;;;;;;5023619;28;20946;-77
2021/09/15 09:51:25;;;;;;;1.03;0.70;;;22.00;99.90;;;;;;5032268;28;20447;-76
2021/09/15 09:54:11;;;;;;;1.10;0.73;;;22.10;99.90;;;;;;5016107;28;20568;-77
2021/09/15 09:56:39;;;;;;;0.77;0.70;;;22.10;99.90;;;;;;5009525;28;20692;-78
2021/09/15 09:59:05;;;;;;;2.20;2.00;;;22.20;99.90;;;;;;5033441;28;20506;-77
2021/09/15 10:01:37;;;;;;;0.97;0.80;;;22.30;99.90;;;;;;5031732;28;20442;-77
2021/09/15 10:04:03;;;;;;;1.20;1.10;;;22.30;99.90;;;;;;5015716;28;20399;-77
2021/09/15 10:06:29;;;;;;;0.80;0.60;;;22.30;99.90;;;;;;5014418;28;20558;-77
2021/09/15 10:08:55;;;;;;;1.67;1.27;;;22.40;99.90;;;;;;5014411;28;20944;-77
2021/09/15 10:11:22;;;;;;;1.40;1.10;;;22.40;99.90;;;;;;5015776;28;20278;-77
2021/09/15 10:13:48;;;;;;;0.80;0.60;;;22.50;99.90;;;;;;5032124;28;20433;-77
2021/09/15 10:16:16;;;;;;;1.03;0.80;;;22.60;99.90;;;;;;5033779;28;20784;-77
2021/09/15 10:18:50;;;;;;;1.00;0.90;;;22.70;99.90;;;;;;5033166;28;20607;-77
2021/09/15 10:21:16;;;;;;;1.10;0.80;;;22.60;99.90;;;;;;5014780;28;20439;-77
2021/09/15 10:23:47;;;;;;;0.80;0.70;;;22.70;99.90;;;;;;5022336;28;20981;-76
2021/09/15 10:26:29;;;;;;;0.97;0.87;;;22.70;99.90;;;;;;5014607;28;20251;-76
2021/09/15 10:29:13;;;;;;;1.33;1.23;;;22.70;99.90;;;;;;5014370;28;20473;-77
2021/09/15 10:31:49;;;;;;;1.27;1.13;;;22.70;99.90;;;;;;5013717;28;20450;-77
2021/09/15 10:34:37;;;;;;;0.97;0.87;;;22.60;99.90;;;;;;5029470;28;20437;-77
2021/09/15 10:37:03;;;;;;;1.10;1.00;;;22.60;99.90;;;;;;5016221;28;20455;-77
2021/09/15 10:39:29;;;;;;;0.80;0.73;;;22.50;99.90;;;;;;5014216;28;20414;-76
2021/09/15 10:41:55;;;;;;;1.33;0.90;;;22.60;99.90;;;;;;5012689;28;20776;-77
2021/09/15 10:44:21;;;;;;;2.00;0.90;;;22.50;99.90;;;;;;5013243;28;20179;-77
2021/09/15 10:46:47;;;;;;;1.37;1.00;;;22.50;99.90;;;;;;5020755;28;20418;-77
2021/09/15 10:49:22;;;;;;;0.70;0.57;;;22.60;99.90;;;;;;5033619;28;20464;-78
2021/09/15 10:52:08;;;;;;;1.40;1.30;;;22.50;99.90;;;;;;5030952;28;20415;-77
2021/09/15 10:55:00;;;;;;;1.43;1.33;;;22.40;99.90;;;;;;5015278;28;20485;-77
2021/09/15 10:57:28;;;;;;;0.80;0.60;;;22.30;99.90;;;;;;5027292;28;20430;-78
2021/09/15 10:59:57;;;;;;;0.70;0.60;;;22.30;99.90;;;;;;5034873;28;20427;-77
2021/09/15 11:02:25;;;;;;;1.23;1.00;;;22.20;99.90;;;;;;5035718;28;20425;-77
2021/09/15 11:04:51;;;;;;;0.83;0.80;;;22.20;99.90;;;;;;5036331;28;20498;-78
2021/09/15 11:07:48;;;;;;;0.87;0.73;;;22.20;99.90;;;;;;5034409;28;20444;-77
2021/09/15 11:10:34;;;;;;;1.30;1.20;;;22.20;99.90;;;;;;5027659;28;20214;-77
2021/09/15 11:13:03;;;;;;;1.93;1.00;;;22.00;99.90;;;;;;5034532;28;20402;-77
2021/09/15 11:15:31;;;;;;;1.50;1.40;;;21.90;99.90;;;;;;5034477;28;20544;-77
2021/09/15 11:17:56;;;;;;;1.20;1.10;;;21.90;99.90;;;;;;5036450;28;20406;-77
2021/09/15 11:20:25;;;;;;;0.70;0.60;;;22.10;99.90;;;;;;5037125;28;20414;-77
2021/09/15 11:22:51;;;;;;;0.80;0.70;;;22.00;99.90;;;;;;5020263;28;20176;-77
2021/09/15 11:25:25;;;;;;;1.30;1.20;;;22.00;99.90;;;;;;5019408;28;20819;-78
2021/09/15 11:28:26;;;;;;;0.80;0.77;;;21.90;99.90;;;;;;5019600;28;20403;-77
2021/09/15 11:30:52;;;;;;;0.73;0.53;;;21.80;99.90;;;;;;5017621;28;20454;-77
2021/09/15 11:33:28;;;;;;;1.00;0.70;;;21.90;99.90;;;;;;5018938;28;20790;-77
2021/09/15 11:35:57;;;;;;;0.80;0.80;;;21.90;99.90;;;;;;5019249;28;20557;-77
2021/09/15 11:38:27;;;;;;;0.90;0.70;;;22.00;99.90;;;;;;5020182;28;20411;-78
2021/09/15 11:41:06;;;;;;;0.70;0.60;;;22.00;99.90;;;;;;5024371;28;20441;-77
2021/09/15 11:43:32;;;;;;;1.00;0.97;;;21.90;99.90;;;;;;5037576;28;20414;-77
2021/09/15 11:45:58;;;;;;;0.80;0.70;;;21.90;99.90;;;;;;5038613;28;20907;-78
2021/09/15 11:48:29;;;;;;;0.70;0.60;;;22.00;99.90;;;;;;5037493;28;20182;-78
2021/09/15 11:50:55;;;;;;;6.57;3.00;;;22.10;99.90;;;;;;5033274;28;20222;-77
2021/09/15 11:53:21;;;;;;;1.20;1.00;;;22.00;99.90;;;;;;5018439;28;20469;-77
2021/09/15 11:55:59;;;;;;;1.10;1.00;;;22.10;99.90;;;;;;5018294;28;20827;-77
2021/09/15 11:58:25;;;;;;;1.90;1.23;;;22.10;99.90;;;;;;5018123;28;20402;-77
2021/09/15 12:00:51;;;;;;;1.80;1.40;;;22.20;99.90;;;;;;5021662;28;21056;-77
2021/09/15 12:03:25;;;;;;;1.60;1.50;;;22.40;99.90;;;;;;5037852;28;20588;-78
2021/09/15 12:05:52;;;;;;;0.90;0.80;;;22.50;99.90;;;;;;5036250;28;20403;-78
2021/09/15 12:08:18;;;;;;;1.37;1.23;;;22.60;99.90;;;;;;5034725;28;20434;-78
2021/09/15 12:10:45;;;;;;;1.30;1.20;;;22.90;99.90;;;;;;5020728;28;20473;-78
2021/09/15 12:13:11;;;;;;;1.20;1.00;;;23.20;99.90;;;;;;5017144;28;20251;-78
2021/09/15 12:15:47;;;;;;;1.10;1.00;;;23.50;99.90;;;;;;5017755;28;20991;-77
2021/09/15 12:18:13;;;;;;;1.40;1.10;;;23.60;99.90;;;;;;5016961;28;20167;-77
2021/09/15 12:20:48;;;;;;;1.13;0.80;;;23.90;99.90;;;;;;5032222;28;20439;-77
2021/09/15 12:23:16;;;;;;;1.63;1.30;;;24.20;99.90;;;;;;5018651;28;20514;-77
2021/09/15 12:25:53;;;;;;;1.20;1.00;;;24.30;99.90;;;;;;5018093;28;20435;-78
2021/09/15 12:28:24;;;;;;;2.27;1.23;;;24.50;99.90;;;;;;5016073;28;20932;-78
2021/09/15 12:30:49;;;;;;;2.13;1.67;;;24.60;99.90;;;;;;5016915;28;21040;-78
2021/09/15 12:33:23;;;;;;;2.30;0.93;;;24.70;99.90;;;;;;5018770;28;20403;-77
2021/09/15 12:36:10;;;;;;;1.13;1.03;;;24.80;99.90;;;;;;5017207;28;20223;-77
2021/09/15 12:38:58;;;;;;;1.73;1.03;;;24.80;99.90;;;;;;5019898;28;20522;-77
2021/09/15 12:41:29;;;;;;;1.27;1.17;;;24.80;99.90;;;;;;5016300;28;20435;-78
2021/09/15 12:44:10;;;;;;;1.57;0.90;;;25.10;99.90;;;;;;5019146;28;20443;-78
2021/09/15 12:46:35;;;;;;;1.93;1.70;;;25.40;99.90;;;;;;5018800;28;20426;-78
2021/09/15 12:49:01;;;;;;;1.10;0.90;;;25.40;99.90;;;;;;5018634;28;20760;-78
2021/09/15 12:51:28;;;;;;;1.70;1.30;;;25.60;99.90;;;;;;5019711;28;20584;-78
2021/09/15 12:53:56;;;;;;;1.50;1.40;;;25.70;99.90;;;;;;5017167;28;20286;-78
2021/09/15 12:56:23;;;;;;;1.40;1.30;;;25.60;99.90;;;;;;5030044;28;20454;-77
2021/09/15 12:58:50;;;;;;;1.10;0.90;;;25.70;99.90;;;;;;5030072;28;20426;-78